MSC Suez — HPMS — position and weather

sailwx.info

Track history (hours):
 
Tides and Currents Weather Stations Pressure Air Temp Water Temp Dewpoint Dewpoint Depression Visibility Wind Speed Wind Dir Waves Ship Positions

MSC Suez

Last reported at 2016-May-03 23:33 UTC. Time now 2016-May-04 00:02 UTC.
Position N 52°32' E 003°30'.

Length 237 m; draft 11.2 m.

Type: Ship. MMSI: 355289000.

Date/timePositionNaut miles runAvg speedWind from/ knotsBaromVisibWave heightAir tempDewpointWater temp
2016-May-03 23:33N 52°32' E 003°30'1414.5
2016-May-03 22:33N 52°46' E 003°39'1715.5
2016-May-03 21:27N 52°58' E 003°58'1515.8
2016-May-03 20:31N 53°07' E 004°18'5616.3
2016-May-03 17:04N 53°59' E 004°54'915.8
2016-May-03 16:31N 54°08' E 004°60'1515.8
2016-May-03 15:34N 54°21' E 005°11'26414.5
2016-May-02 21:25N 57°46' E 010°08'1415.3
2016-May-02 20:29N 57°49' E 010°34'1415.0
2016-May-02 19:33N 57°43' E 010°57'1716.5
2016-May-02 18:33N 57°31' E 011°20'1616.3
2016-May-02 17:33N 57°17' E 011°33'1616.4
2016-May-02 16:33N 57°01' E 011°43'1615.8
2016-May-02 15:33N 56°46' E 011°53'1615.7
2016-May-02 14:33N 56°32' E 011°39'1717.1
2016-May-02 13:33N 56°17' E 011°24'1717.0
2016-May-02 12:33N 56°03' E 011°07'1111.2
2016-May-02 11:33N 55°60' E 010°48'1312.7
2016-May-02 10:33N 56°06' E 010°28'8 8.2
2016-May-02 09:34N 56°09' E 010°14'0 0.1
2016-May-02 08:33N 56°09' E 010°14'0 0.0
2016-May-02 07:33N 56°09' E 010°14'0 0.0
2016-May-02 06:33N 56°09' E 010°14'0 0.0
2016-May-02 05:34N 56°09' E 010°14'0 0.0
2016-May-02 04:33N 56°09' E 010°14'0 0.0
2016-May-02 03:33N 56°09' E 010°14'0 0.0
2016-May-02 02:33N 56°09' E 010°14'0 0.0
2016-May-02 01:33N 56°09' E 010°14'0 0.1
2016-May-02 00:33N 56°09' E 010°14'6 5.5
2016-May-01 23:33N 56°07' E 010°24'8 7.7
2016-May-01 22:33N 56°04' E 010°36'8 7.9
2016-May-01 21:33N 55°60' E 010°48'7 7.0
2016-May-01 20:33N 55°55' E 010°57'1212.4
2016-May-01 19:33N 55°43' E 010°48'1312.5
2016-May-01 18:33N 55°31' E 010°52'1212.4
2016-May-01 17:33N 55°20' E 011°02'1110.6
2016-May-01 16:33N 55°10' E 011°00'1312.7
2016-May-01 15:33N 54°57' E 010°55'1413.5
2016-May-01 14:33N 54°45' E 010°47'1212.0
2016-May-01 13:34N 54°36' E 011°02'1616.4
2016-May-01 12:34N 54°31' E 011°29'1616.4
2016-May-01 11:33N 54°26' E 011°56'1413.8
2016-May-01 10:33N 54°34' E 012°15'1716.6
2016-May-01 09:33N 54°45' E 012°38'1716.4
2016-May-01 08:33N 54°51' E 013°04'1616.6
2016-May-01 07:33N 54°57' E 013°31'1717.4
2016-May-01 06:33N 55°03' E 013°59'1616.2
2016-May-01 05:33N 55°15' E 014°19'1312.8
2016-May-01 04:33N 55°24' E 014°33'1212.4
2016-May-01 03:33N 55°31' E 014°51'1312.7
2016-May-01 02:33N 55°37' E 015°11'1312.6
2016-May-01 01:33N 55°44' E 015°30'1312.7
2016-May-01 00:33N 55°50' E 015°50'1312.7
2016-Apr-30 23:33N 55°57' E 016°09'1312.8
2016-Apr-30 22:32N 56°03' E 016°30'1212.6
2016-Apr-30 21:33N 56°10' E 016°48'25115.7
2016-Apr-30 05:33N 59°18' E 021°60'1212.4
2016-Apr-30 04:33N 59°24' E 022°20'1212.0
2016-Apr-30 03:33N 59°31' E 022°39'1312.5
2016-Apr-30 02:33N 59°35' E 023°03'1212.5
2016-Apr-30 01:33N 59°38' E 023°27'1212.5
2016-Apr-30 00:33N 59°42' E 023°50'1212.2
2016-Apr-29 23:33N 59°45' E 024°14'2912.4
2016-Apr-29 21:13N 59°52' E 025°10'812.3
2016-Apr-29 20:33N 59°53' E 025°26'1312.3
2016-Apr-29 19:32N 59°56' E 025°50'1312.4
2016-Apr-29 18:29N 59°59' E 026°16'1112.3
2016-Apr-29 17:33N 60°01' E 026°38'1312.3
2016-Apr-29 16:31N 59°59' E 027°03'1212.2
2016-Apr-29 15:33N 60°05' E 027°23'2311.2
2016-Apr-29 13:29N 60°09' E 028°09'1313.9
2016-Apr-29 12:33N 60°03' E 028°33'1312.7
2016-Apr-29 11:33N 60°03' E 028°58'1312.9
2016-Apr-29 10:33N 60°02' E 029°24'1110.9
2016-Apr-29 09:33N 59°59' E 029°45'1010.2
2016-Apr-29 08:34N 59°55' E 030°03'5 4.9
2016-Apr-29 07:31N 59°52' E 030°12'0 0.0
2016-Apr-29 06:31N 59°52' E 030°12'0 0.0
2016-Apr-29 05:31N 59°52' E 030°12'0 0.0
2016-Apr-29 04:31N 59°52' E 030°12'0 0.0
2016-Apr-29 03:31N 59°52' E 030°12'0 0.0
2016-Apr-29 02:31N 59°52' E 030°12'0 0.0
2016-Apr-29 01:31N 59°52' E 030°12'0 0.0
2016-Apr-29 00:31N 59°52' E 030°12'0 0.0
2016-Apr-28 23:31N 59°52' E 030°12'0 0.0
2016-Apr-28 22:31N 59°52' E 030°12'0 0.0
2016-Apr-28 21:31N 59°52' E 030°12'0 0.0
2016-Apr-28 20:31N 59°52' E 030°12'0 0.0
2016-Apr-28 19:31N 59°52' E 030°12'0 0.0
2016-Apr-28 18:31N 59°52' E 030°12'0 0.0
2016-Apr-28 17:31N 59°52' E 030°12'0 0.0
2016-Apr-28 16:31N 59°52' E 030°12'0 0.0
2016-Apr-28 15:31N 59°52' E 030°12'0 0.0
2016-Apr-28 14:28N 59°52' E 030°12'0 0.0
2016-Apr-28 13:31N 59°52' E 030°12'0 0.0
2016-Apr-28 12:31N 59°52' E 030°12'0 0.0
2016-Apr-28 11:31N 59°52' E 030°12'0 0.0
2016-Apr-28 10:31N 59°52' E 030°12'0 0.0
2016-Apr-28 09:31N 59°52' E 030°12'0 0.0
2016-Apr-28 08:31N 59°52' E 030°12'0 0.0
2016-Apr-28 07:31N 59°52' E 030°12'0 0.0
2016-Apr-28 06:31N 59°52' E 030°12'0 0.0
2016-Apr-28 05:31N 59°52' E 030°12'0 0.0
2016-Apr-28 04:31N 59°52' E 030°12'0 0.0
2016-Apr-28 03:31N 59°52' E 030°12'0 0.0
2016-Apr-28 02:31N 59°52' E 030°12'0 0.0
2016-Apr-28 01:31N 59°52' E 030°12'0 0.0
2016-Apr-28 00:31N 59°52' E 030°12'0 0.0
2016-Apr-27 23:31N 59°52' E 030°12'0 0.0
2016-Apr-27 22:31N 59°52' E 030°12'0 0.0
2016-Apr-27 21:31N 59°52' E 030°12'0 0.0
2016-Apr-27 20:31N 59°52' E 030°12'0 0.0
2016-Apr-27 19:31N 59°52' E 030°12'0 0.0
2016-Apr-27 18:31N 59°52' E 030°12'0 0.0
2016-Apr-27 17:31N 59°52' E 030°12'0 0.0
2016-Apr-27 16:31N 59°52' E 030°12'0 0.0
2016-Apr-27 15:33N 59°52' E 030°12'0 0.0
2016-Apr-27 14:33N 59°52' E 030°12'0 0.0
2016-Apr-27 13:33N 59°52' E 030°12'0 0.0
2016-Apr-27 12:33N 59°52' E 030°12'0 0.0
2016-Apr-27 11:33N 59°52' E 030°12'0 0.0
2016-Apr-27 10:33N 59°52' E 030°12'0 0.0
2016-Apr-27 09:33N 59°52' E 030°12'0 0.0
2016-Apr-27 08:33N 59°52' E 030°12'0 0.0
2016-Apr-27 07:33N 59°52' E 030°12'0 0.0
2016-Apr-27 06:33N 59°52' E 030°12'0 0.0
2016-Apr-27 05:33N 59°52' E 030°12'0 0.0
2016-Apr-27 04:33N 59°52' E 030°12'0 0.0
2016-Apr-27 03:33N 59°52' E 030°12'1 1.1
2016-Apr-27 02:33N 59°53' E 030°10'10 9.6
2016-Apr-27 01:33N 59°57' E 029°53'1010.3
2016-Apr-27 00:33N 60°01' E 029°34'10 9.7
2016-Apr-26 23:33N 60°02' E 029°14'1616.1
2016-Apr-26 22:33N 60°02' E 028°42'1515.0
2016-Apr-26 21:33N 60°07' E 028°14'1515.4
2016-Apr-26 20:33N 60°10' E 027°43'1616.2
2016-Apr-26 19:33N 60°01' E 027°15'1715.2
2016-Apr-26 18:25N 59°59' E 026°41'84 5.6
2016-Apr-26 03:33N 59°39' E 023°59'1818.4
2016-Apr-26 02:33N 59°33' E 023°25'1818.3
2016-Apr-26 01:33N 59°28' E 022°50'31518.0
2016-Apr-25 08:04N 55°47' E 015°51'918.5
2016-Apr-25 07:33N 55°43' E 015°37'1918.5
2016-Apr-25 06:34N 55°33' E 015°09'1818.3
2016-Apr-25 05:33N 55°24' E 014°40'1818.0
2016-Apr-25 04:34N 55°10' E 014°20'1717.4
2016-Apr-25 03:34N 54°59' E 013°57'1818.1
2016-Apr-25 02:33N 54°53' E 013°27'1818.0
2016-Apr-25 01:33N 54°48' E 012°57'1817.7
2016-Apr-25 00:33N 54°40' E 012°30'1717.3
2016-Apr-24 23:33N 54°26' E 012°12'1717.0
2016-Apr-24 22:33N 54°26' E 011°43'1817.9
2016-Apr-24 21:33N 54°34' E 011°15'1716.6
2016-Apr-24 20:33N 54°43' E 010°51'1615.9
2016-Apr-24 19:33N 54°58' E 010°59'1615.9
2016-Apr-24 18:33N 55°13' E 011°06'1413.8
2016-Apr-24 17:33N 55°26' E 010°57'2316.6
2016-Apr-24 16:11N 55°49' E 010°48'1117.0
2016-Apr-24 15:33N 55°57' E 010°60'4418.6
2016-Apr-24 13:10N 56°35' E 011°41'1118.5
2016-Apr-24 12:32N 56°45' E 011°51'1818.4
2016-Apr-24 11:33N 57°02' E 011°41'1918.7
2016-Apr-24 10:34N 57°20' E 011°29'1818.2
2016-Apr-24 09:33N 57°35' E 011°10'1818.4
2016-Apr-24 08:33N 57°47' E 010°44'1917.9
2016-Apr-24 07:31N 57°45' E 010°10'  
Track history (hours):
 
Tides and Currents Weather Stations Pressure Air Temp Water Temp Dewpoint Dewpoint Depression Visibility Wind Speed Wind Dir Waves Ship Positions

MSC Suez

Last reported at 2016-May-03 23:33 UTC. Time now 2016-May-04 00:02 UTC.
Position N 52°32' E 003°30'.

Length 237 m; draft 11.2 m.

Type: Ship. MMSI: 355289000.

Date/timePositionNaut miles runAvg speedWind from/ knotsBaromVisibWave heightAir tempDewpointWater temp
2016-May-03 23:33N 52°32' E 003°30'1414.5
2016-May-03 22:33N 52°46' E 003°39'1715.5
2016-May-03 21:27N 52°58' E 003°58'1515.8
2016-May-03 20:31N 53°07' E 004°18'5616.3
2016-May-03 17:04N 53°59' E 004°54'915.8
2016-May-03 16:31N 54°08' E 004°60'1515.8
2016-May-03 15:34N 54°21' E 005°11'26414.5
2016-May-02 21:25N 57°46' E 010°08'1415.3
2016-May-02 20:29N 57°49' E 010°34'1415.0
2016-May-02 19:33N 57°43' E 010°57'1716.5
2016-May-02 18:33N 57°31' E 011°20'1616.3
2016-May-02 17:33N 57°17' E 011°33'1616.4
2016-May-02 16:33N 57°01' E 011°43'1615.8
2016-May-02 15:33N 56°46' E 011°53'1615.7
2016-May-02 14:33N 56°32' E 011°39'1717.1
2016-May-02 13:33N 56°17' E 011°24'1717.0
2016-May-02 12:33N 56°03' E 011°07'1111.2
2016-May-02 11:33N 55°60' E 010°48'1312.7
2016-May-02 10:33N 56°06' E 010°28'8 8.2
2016-May-02 09:34N 56°09' E 010°14'0 0.1
2016-May-02 08:33N 56°09' E 010°14'0 0.0
2016-May-02 07:33N 56°09' E 010°14'0 0.0
2016-May-02 06:33N 56°09' E 010°14'0 0.0
2016-May-02 05:34N 56°09' E 010°14'0 0.0
2016-May-02 04:33N 56°09' E 010°14'0 0.0
2016-May-02 03:33N 56°09' E 010°14'0 0.0
2016-May-02 02:33N 56°09' E 010°14'0 0.0
2016-May-02 01:33N 56°09' E 010°14'0 0.1
2016-May-02 00:33N 56°09' E 010°14'6 5.5
2016-May-01 23:33N 56°07' E 010°24'8 7.7
2016-May-01 22:33N 56°04' E 010°36'8 7.9
2016-May-01 21:33N 55°60' E 010°48'7 7.0
2016-May-01 20:33N 55°55' E 010°57'1212.4
2016-May-01 19:33N 55°43' E 010°48'1312.5
2016-May-01 18:33N 55°31' E 010°52'1212.4
2016-May-01 17:33N 55°20' E 011°02'1110.6
2016-May-01 16:33N 55°10' E 011°00'1312.7
2016-May-01 15:33N 54°57' E 010°55'1413.5
2016-May-01 14:33N 54°45' E 010°47'1212.0
2016-May-01 13:34N 54°36' E 011°02'1616.4
2016-May-01 12:34N 54°31' E 011°29'1616.4
2016-May-01 11:33N 54°26' E 011°56'1413.8
2016-May-01 10:33N 54°34' E 012°15'1716.6
2016-May-01 09:33N 54°45' E 012°38'1716.4
2016-May-01 08:33N 54°51' E 013°04'1616.6
2016-May-01 07:33N 54°57' E 013°31'1717.4
2016-May-01 06:33N 55°03' E 013°59'1616.2
2016-May-01 05:33N 55°15' E 014°19'1312.8
2016-May-01 04:33N 55°24' E 014°33'1212.4
2016-May-01 03:33N 55°31' E 014°51'1312.7
2016-May-01 02:33N 55°37' E 015°11'1312.6
2016-May-01 01:33N 55°44' E 015°30'1312.7
2016-May-01 00:33N 55°50' E 015°50'1312.7
2016-Apr-30 23:33N 55°57' E 016°09'1312.8
2016-Apr-30 22:32N 56°03' E 016°30'1212.6
2016-Apr-30 21:33N 56°10' E 016°48'25115.7
2016-Apr-30 05:33N 59°18' E 021°60'1212.4
2016-Apr-30 04:33N 59°24' E 022°20'1212.0
2016-Apr-30 03:33N 59°31' E 022°39'1312.5
2016-Apr-30 02:33N 59°35' E 023°03'1212.5
2016-Apr-30 01:33N 59°38' E 023°27'1212.5
2016-Apr-30 00:33N 59°42' E 023°50'1212.2
2016-Apr-29 23:33N 59°45' E 024°14'2912.4
2016-Apr-29 21:13N 59°52' E 025°10'812.3
2016-Apr-29 20:33N 59°53' E 025°26'1312.3
2016-Apr-29 19:32N 59°56' E 025°50'1312.4
2016-Apr-29 18:29N 59°59' E 026°16'1112.3
2016-Apr-29 17:33N 60°01' E 026°38'1312.3
2016-Apr-29 16:31N 59°59' E 027°03'1212.2
2016-Apr-29 15:33N 60°05' E 027°23'2311.2
2016-Apr-29 13:29N 60°09' E 028°09'1313.9
2016-Apr-29 12:33N 60°03' E 028°33'1312.7
2016-Apr-29 11:33N 60°03' E 028°58'1312.9
2016-Apr-29 10:33N 60°02' E 029°24'1110.9
2016-Apr-29 09:33N 59°59' E 029°45'1010.2
2016-Apr-29 08:34N 59°55' E 030°03'5 4.9
2016-Apr-29 07:31N 59°52' E 030°12'0 0.0
2016-Apr-29 06:31N 59°52' E 030°12'0 0.0
2016-Apr-29 05:31N 59°52' E 030°12'0 0.0
2016-Apr-29 04:31N 59°52' E 030°12'0 0.0
2016-Apr-29 03:31N 59°52' E 030°12'0 0.0
2016-Apr-29 02:31N 59°52' E 030°12'0 0.0
2016-Apr-29 01:31N 59°52' E 030°12'0 0.0
2016-Apr-29 00:31N 59°52' E 030°12'0 0.0
2016-Apr-28 23:31N 59°52' E 030°12'0 0.0
2016-Apr-28 22:31N 59°52' E 030°12'0 0.0
2016-Apr-28 21:31N 59°52' E 030°12'0 0.0
2016-Apr-28 20:31N 59°52' E 030°12'0 0.0
2016-Apr-28 19:31N 59°52' E 030°12'0 0.0
2016-Apr-28 18:31N 59°52' E 030°12'0 0.0
2016-Apr-28 17:31N 59°52' E 030°12'0 0.0
2016-Apr-28 16:31N 59°52' E 030°12'0 0.0
2016-Apr-28 15:31N 59°52' E 030°12'0 0.0
2016-Apr-28 14:28N 59°52' E 030°12'0 0.0
2016-Apr-28 13:31N 59°52' E 030°12'0 0.0
2016-Apr-28 12:31N 59°52' E 030°12'0 0.0
2016-Apr-28 11:31N 59°52' E 030°12'0 0.0
2016-Apr-28 10:31N 59°52' E 030°12'0 0.0
2016-Apr-28 09:31N 59°52' E 030°12'0 0.0
2016-Apr-28 08:31N 59°52' E 030°12'0 0.0
2016-Apr-28 07:31N 59°52' E 030°12'0 0.0
2016-Apr-28 06:31N 59°52' E 030°12'0 0.0
2016-Apr-28 05:31N 59°52' E 030°12'0 0.0
2016-Apr-28 04:31N 59°52' E 030°12'0 0.0
2016-Apr-28 03:31N 59°52' E 030°12'0 0.0
2016-Apr-28 02:31N 59°52' E 030°12'0 0.0
2016-Apr-28 01:31N 59°52' E 030°12'0 0.0
2016-Apr-28 00:31N 59°52' E 030°12'0 0.0
2016-Apr-27 23:31N 59°52' E 030°12'0 0.0
2016-Apr-27 22:31N 59°52' E 030°12'0 0.0
2016-Apr-27 21:31N 59°52' E 030°12'0 0.0
2016-Apr-27 20:31N 59°52' E 030°12'0 0.0
2016-Apr-27 19:31N 59°52' E 030°12'0 0.0
2016-Apr-27 18:31N 59°52' E 030°12'0 0.0
2016-Apr-27 17:31N 59°52' E 030°12'0 0.0
2016-Apr-27 16:31N 59°52' E 030°12'0 0.0
2016-Apr-27 15:33N 59°52' E 030°12'0 0.0
2016-Apr-27 14:33N 59°52' E 030°12'0 0.0
2016-Apr-27 13:33N 59°52' E 030°12'0 0.0
2016-Apr-27 12:33N 59°52' E 030°12'0 0.0
2016-Apr-27 11:33N 59°52' E 030°12'0 0.0
2016-Apr-27 10:33N 59°52' E 030°12'0 0.0
2016-Apr-27 09:33N 59°52' E 030°12'0 0.0
2016-Apr-27 08:33N 59°52' E 030°12'0 0.0
2016-Apr-27 07:33N 59°52' E 030°12'0 0.0
2016-Apr-27 06:33N 59°52' E 030°12'0 0.0
2016-Apr-27 05:33N 59°52' E 030°12'0 0.0
2016-Apr-27 04:33N 59°52' E 030°12'0 0.0
2016-Apr-27 03:33N 59°52' E 030°12'1 1.1
2016-Apr-27 02:33N 59°53' E 030°10'10 9.6
2016-Apr-27 01:33N 59°57' E 029°53'1010.3
2016-Apr-27 00:33N 60°01' E 029°34'10 9.7
2016-Apr-26 23:33N 60°02' E 029°14'1616.1
2016-Apr-26 22:33N 60°02' E 028°42'1515.0
2016-Apr-26 21:33N 60°07' E 028°14'1515.4
2016-Apr-26 20:33N 60°10' E 027°43'1616.2
2016-Apr-26 19:33N 60°01' E 027°15'1715.2
2016-Apr-26 18:25N 59°59' E 026°41'84 5.6
2016-Apr-26 03:33N 59°39' E 023°59'1818.4
2016-Apr-26 02:33N 59°33' E 023°25'1818.3
2016-Apr-26 01:33N 59°28' E 022°50'31518.0
2016-Apr-25 08:04N 55°47' E 015°51'918.5
2016-Apr-25 07:33N 55°43' E 015°37'1918.5
2016-Apr-25 06:34N 55°33' E 015°09'1818.3
2016-Apr-25 05:33N 55°24' E 014°40'1818.0
2016-Apr-25 04:34N 55°10' E 014°20'1717.4
2016-Apr-25 03:34N 54°59' E 013°57'1818.1
2016-Apr-25 02:33N 54°53' E 013°27'1818.0
2016-Apr-25 01:33N 54°48' E 012°57'1817.7
2016-Apr-25 00:33N 54°40' E 012°30'1717.3
2016-Apr-24 23:33N 54°26' E 012°12'1717.0
2016-Apr-24 22:33N 54°26' E 011°43'1817.9
2016-Apr-24 21:33N 54°34' E 011°15'1716.6
2016-Apr-24 20:33N 54°43' E 010°51'1615.9
2016-Apr-24 19:33N 54°58' E 010°59'1615.9
2016-Apr-24 18:33N 55°13' E 011°06'1413.8
2016-Apr-24 17:33N 55°26' E 010°57'2316.6
2016-Apr-24 16:11N 55°49' E 010°48'1117.0
2016-Apr-24 15:33N 55°57' E 010°60'4418.6
2016-Apr-24 13:10N 56°35' E 011°41'1118.5
2016-Apr-24 12:32N 56°45' E 011°51'1818.4
2016-Apr-24 11:33N 57°02' E 011°41'1918.7
2016-Apr-24 10:34N 57°20' E 011°29'1818.2
2016-Apr-24 09:33N 57°35' E 011°10'1818.4
2016-Apr-24 08:33N 57°47' E 010°44'1917.9
2016-Apr-24 07:31N 57°45' E 010°10'  

Dump ship's entire track history